Time;durP1;ratioP1;P1;durP2;ratioP2;P2;SDS_P1;SDS_P2;PMS_P1;PMS_P2;Temp;Humidity;BMP_temperature;BMP_pressure;BME280_temperature;BME280_humidity;BME280_pressure;Samples;Min_cycle;Max_cycle;Signal;HPM_P1;HPM_P2
2023/08/09 00:01:31;;;;;;;3.25;2.03;;;;;;;14.77;100.00;101179.72;5101026;28;20036;-54
2023/08/09 00:03:57;;;;;;;2.03;1.75;;;;;;;14.74;100.00;101182.66;5094512;28;20054;-56
2023/08/09 00:06:22;;;;;;;3.10;1.80;;;;;;;14.76;100.00;101178.00;5098273;28;20081;-53
2023/08/09 00:08:47;;;;;;;2.55;1.92;;;;;;;14.75;100.00;101183.47;5098690;28;20051;-54
2023/08/09 00:11:12;;;;;;;1.95;1.73;;;;;;;14.74;100.00;101184.50;5097031;28;20504;-56
2023/08/09 00:13:38;;;;;;;1.90;1.75;;;;;;;14.72;100.00;101192.63;5099502;28;20480;-54
2023/08/09 00:16:04;;;;;;;2.45;2.05;;;;;;;14.73;100.00;101178.28;5100126;28;20035;-56
2023/08/09 00:18:29;;;;;;;3.28;2.10;;;;;;;14.74;100.00;101181.81;5098410;28;20028;-55
2023/08/09 00:20:55;;;;;;;2.80;2.10;;;;;;;14.74;100.00;101187.16;5097911;28;20035;-56
2023/08/09 00:23:21;;;;;;;2.28;2.08;;;;;;;14.74;100.00;101187.16;5098351;28;20478;-56
2023/08/09 00:25:46;;;;;;;3.67;2.20;;;;;;;14.71;100.00;101180.25;5095059;28;20042;-55
2023/08/09 00:28:12;;;;;;;3.60;1.90;;;;;;;14.72;100.00;101186.44;5096995;28;20111;-57
2023/08/09 00:30:37;;;;;;;3.00;2.58;;;;;;;14.72;100.00;101181.94;5093079;28;20476;-56
2023/08/09 00:33:03;;;;;;;4.53;2.30;;;;;;;14.71;100.00;101188.25;5096477;28;20064;-54
2023/08/09 00:35:30;;;;;;;3.28;2.22;;;;;;;14.68;100.00;101185.84;5087914;28;20024;-54
2023/08/09 00:37:55;;;;;;;2.00;1.90;;;;;;;14.69;100.00;101184.88;5102956;28;20027;-57
2023/08/09 00:40:20;;;;;;;2.42;2.22;;;;;;;14.69;100.00;101190.22;5101331;28;20034;-57
2023/08/09 00:42:46;;;;;;;2.60;2.10;;;;;;;14.70;100.00;101183.88;5099561;28;20027;-55
2023/08/09 00:45:12;;;;;;;3.70;2.08;;;;;;;14.71;100.00;101190.09;5101063;28;20051;-57
2023/08/09 00:47:37;;;;;;;2.45;2.30;;;;;;;14.70;100.00;101188.41;5097071;28;20021;-57
2023/08/09 00:50:04;;;;;;;3.40;2.15;;;;;;;14.70;100.00;101194.56;5100068;28;20122;-57
2023/08/09 00:52:29;;;;;;;4.03;2.13;;;;;;;14.71;100.00;101195.44;5095773;28;20065;-54
2023/08/09 00:54:55;;;;;;;2.80;2.00;;;;;;;14.69;100.00;101184.88;5096094;28;20027;-57
2023/08/09 00:57:21;;;;;;;3.40;2.15;;;;;;;14.70;100.00;101199.09;5095627;28;20510;-57
2023/08/09 00:59:46;;;;;;;3.10;2.35;;;;;;;14.70;100.00;101199.94;5098883;28;20032;-54
2023/08/09 01:02:11;;;;;;;2.20;2.00;;;;;;;14.72;100.00;101195.31;5097585;28;20035;-56
2023/08/09 01:04:37;;;;;;;2.20;2.00;;;;;;;14.70;100.00;101207.94;5099780;28;20032;-55
2023/08/09 01:07:18;;;;;;;5.03;2.25;;;;;;;14.74;100.00;101211.22;5097241;28;20099;-57
2023/08/09 01:10:10;;;;;;;3.05;2.30;;;;;;;14.69;100.00;101206.28;5087912;28;20036;-56
2023/08/09 01:12:41;;;;;;;3.50;2.35;;;;;;;14.70;100.00;101202.59;5095443;28;20118;-54
2023/08/09 01:15:08;;;;;;;2.50;2.30;;;;;;;14.69;100.00;101214.28;5082105;28;20111;-54
2023/08/09 01:17:35;;;;;;;2.58;2.38;;;;;;;14.68;100.00;101215.25;5099261;28;20022;-55
2023/08/09 01:20:01;;;;;;;2.42;2.22;;;;;;;14.65;100.00;101204.00;5092903;28;20023;-54
2023/08/09 01:22:31;;;;;;;3.28;2.10;;;;;;;14.67;100.00;101196.69;5092697;28;20030;-55
2023/08/09 01:25:06;;;;;;;2.45;2.25;;;;;;;14.68;100.00;101203.72;5095376;28;20073;-54
2023/08/09 01:27:36;;;;;;;2.72;2.35;;;;;;;14.64;100.00;101203.16;5095112;28;20123;-54
2023/08/09 01:30:01;;;;;;;;;;;;;;;14.86;100.00;101204.78;5096423;28;20499;-56
2023/08/09 01:32:28;;;;;;;3.30;2.28;;;;;;;14.69;100.00;101206.28;5096269;28;19912;-53
2023/08/09 01:34:54;;;;;;;2.30;2.20;;;;;;;14.68;100.00;101212.59;5095316;28;20110;-56
2023/08/09 01:37:41;;;;;;;4.00;2.72;;;;;;;14.74;100.00;101211.22;5085183;28;20032;-57
2023/08/09 01:40:09;;;;;;;3.05;2.22;;;;;;;14.67;100.00;101220.75;5098893;28;20115;-57
2023/08/09 01:42:37;;;;;;;2.50;2.30;;;;;;;14.65;100.00;101212.03;5088197;28;20369;-56
2023/08/09 01:45:04;;;;;;;2.58;2.38;;;;;;;14.59;100.00;101210.75;5100228;28;20442;-56
2023/08/09 01:47:29;;;;;;;3.47;2.80;;;;;;;14.58;100.00;101217.88;5094229;28;20034;-54
2023/08/09 01:49:55;;;;;;;2.42;2.20;;;;;;;14.56;100.00;101210.97;5098567;28;20016;-57
2023/08/09 01:52:20;;;;;;;2.60;2.40;;;;;;;14.54;100.00;101224.47;5098850;28;20032;-56
2023/08/09 01:54:45;;;;;;;2.60;2.40;;;;;;;14.51;100.00;101224.75;5095217;28;20047;-56
2023/08/09 01:57:11;;;;;;;2.22;2.05;;;;;;;14.50;100.00;101225.72;5099580;28;20024;-56
2023/08/09 01:59:37;;;;;;;2.63;2.40;;;;;;;14.41;100.00;101222.03;5095238;28;20162;-56
2023/08/09 02:02:03;;;;;;;3.65;2.03;;;;;;;14.41;100.00;101224.69;5096266;28;20389;-53
2023/08/09 02:04:28;;;;;;;5.63;2.40;;;;;;;14.34;100.00;101223.53;5095458;28;20036;-53
2023/08/09 02:06:54;;;;;;;3.78;2.47;;;;;;;14.30;100.00;101232.78;5093952;28;20028;-53
2023/08/09 02:09:20;;;;;;;2.45;2.28;;;;;;;14.25;100.00;101232.34;5097982;28;20027;-54
2023/08/09 02:11:46;;;;;;;3.13;2.20;;;;;;;14.25;100.00;101233.22;5091150;28;20028;-53
2023/08/09 02:14:11;;;;;;;2.88;2.20;;;;;;;14.23;100.00;101239.66;5096711;28;20024;-53
2023/08/09 02:16:37;;;;;;;2.85;2.40;;;;;;;14.16;100.00;101227.81;5096419;28;20095;-53
2023/08/09 02:19:03;;;;;;;3.90;2.70;;;;;;;14.11;100.00;101230.84;5098651;28;20020;-53
2023/08/09 02:21:28;;;;;;;4.25;2.58;;;;;;;14.09;100.00;101238.16;5099043;28;20102;-53
2023/08/09 02:23:54;;;;;;;3.47;2.50;;;;;;;14.04;100.00;101243.88;5094991;28;20093;-53
2023/08/09 02:26:19;;;;;;;3.88;2.70;;;;;;;14.02;100.00;101245.84;5092683;28;20547;-54
2023/08/09 02:28:45;;;;;;;2.55;2.35;;;;;;;14.01;100.00;101244.16;5088110;28;20036;-53
2023/08/09 02:31:11;;;;;;;4.57;2.72;;;;;;;13.96;100.00;101246.38;5099520;28;20020;-53
2023/08/09 02:33:36;;;;;;;3.70;2.92;;;;;;;13.92;100.00;101239.56;5094391;28;20389;-53
2023/08/09 02:36:02;;;;;;;3.22;2.47;;;;;;;13.94;100.00;101252.78;5093352;28;20030;-52
2023/08/09 02:38:28;;;;;;;3.05;2.83;;;;;;;13.84;100.00;101260.75;5092796;28;20028;-53
2023/08/09 02:40:54;;;;;;;4.22;2.97;;;;;;;13.83;100.00;101254.56;5094843;28;20420;-53
2023/08/09 02:43:23;;;;;;;3.95;2.63;;;;;;;13.81;100.00;101266.34;5092329;28;20069;-53
2023/08/09 02:45:49;;;;;;;3.42;2.92;;;;;;;13.76;100.00;101255.22;5094751;28;20027;-53
2023/08/09 02:48:14;;;;;;;3.00;2.58;;;;;;;13.75;100.00;101257.00;5095355;28;20449;-53
2023/08/09 02:50:40;;;;;;;2.60;2.40;;;;;;;13.75;100.00;101256.19;5095617;28;20030;-52
2023/08/09 02:53:06;;;;;;;2.70;2.50;;;;;;;13.68;100.00;101270.03;5096488;28;20040;-53
2023/08/09 02:55:32;;;;;;;2.72;2.50;;;;;;;13.71;100.00;101279.63;5100681;28;20504;-53
2023/08/09 02:57:59;;;;;;;3.08;2.78;;;;;;;13.68;100.00;101269.19;5096414;28;20027;-54
2023/08/09 03:00:25;;;;;;;2.60;2.40;;;;;;;13.68;100.00;101278.03;5095784;28;20173;-53
2023/08/09 03:02:50;;;;;;;2.92;2.72;;;;;;;13.64;100.00;101278.44;5101437;28;20533;-53
2023/08/09 03:05:16;;;;;;;2.30;2.20;;;;;;;13.60;100.00;101277.81;5100025;28;20497;-53
2023/08/09 03:07:42;;;;;;;2.85;2.60;;;;;;;13.54;100.00;101275.69;5098719;28;20489;-53
2023/08/09 03:10:08;;;;;;;2.75;2.40;;;;;;;13.52;100.00;101282.94;5101512;28;20081;-53
2023/08/09 03:12:33;;;;;;;2.83;2.63;;;;;;;13.53;100.00;101281.13;5099894;28;20016;-54
2023/08/09 03:14:59;;;;;;;2.60;2.40;;;;;;;13.50;100.00;101288.41;5097000;28;20024;-53
2023/08/09 03:17:24;;;;;;;2.60;2.40;;;;;;;13.48;100.00;101293.03;5092616;28;20110;-57
2023/08/09 03:19:50;;;;;;;2.42;2.22;;;;;;;13.46;100.00;101294.97;5100055;28;20055;-53
2023/08/09 03:22:16;;;;;;;3.30;2.50;;;;;;;13.40;100.00;101292.78;5101876;28;20299;-52
2023/08/09 03:24:41;;;;;;;3.65;2.92;;;;;;;13.35;100.00;101288.81;5098612;28;20028;-53
2023/08/09 03:27:07;;;;;;;3.08;2.75;;;;;;;13.34;100.00;101290.66;5098509;28;20114;-53
2023/08/09 03:29:32;;;;;;;3.83;2.80;;;;;;;13.31;100.00;101289.03;5099128;28;20077;-53
2023/08/09 03:31:58;;;;;;;3.38;2.95;;;;;;;13.27;100.00;101290.25;5097535;28;20470;-53
2023/08/09 03:34:23;;;;;;;3.30;3.00;;;;;;;13.29;100.00;101295.47;5101293;28;20034;-53
2023/08/09 03:36:49;;;;;;;3.35;3.08;;;;;;;13.27;100.00;101298.28;5096650;28;20420;-52
2023/08/09 03:39:14;;;;;;;4.25;3.20;;;;;;;13.24;100.00;101302.97;5100706;28;20103;-54
2023/08/09 03:41:41;;;;;;;3.85;3.10;;;;;;;13.22;100.00;101313.81;5095191;28;20081;-53
2023/08/09 03:44:06;;;;;;;2.90;2.70;;;;;;;13.24;100.00;101303.84;5096434;28;20052;-53
2023/08/09 03:46:34;;;;;;;3.15;2.90;;;;;;;13.21;100.00;101319.25;5097769;28;20048;-52
2023/08/09 03:48:59;;;;;;;3.38;3.17;;;;;;;13.18;100.00;101328.34;5100582;28;20031;-53
2023/08/09 03:51:25;;;;;;;3.53;2.92;;;;;;;13.18;100.00;101328.34;5096139;28;20089;-52
2023/08/09 03:53:50;;;;;;;5.05;2.97;;;;;;;13.19;100.00;101329.19;5094849;28;20122;-53
2023/08/09 03:56:15;;;;;;;4.85;3.20;;;;;;;13.18;100.00;101327.50;5094969;28;20016;-53
2023/08/09 03:58:41;;;;;;;3.40;2.70;;;;;;;13.16;100.00;101330.28;5103235;28;20032;-53
2023/08/09 04:01:06;;;;;;;4.35;3.20;;;;;;;13.11;100.00;101337.81;5097005;28;20027;-55
2023/08/09 04:03:32;;;;;;;3.95;2.72;;;;;;;13.08;100.00;101338.88;5101633;28;20051;-52
2023/08/09 04:05:57;;;;;;;2.53;2.42;;;;;;;13.07;100.00;101337.22;5097204;28;20028;-52
2023/08/09 04:08:26;;;;;;;3.17;2.60;;;;;;;13.05;100.00;101339.13;5094358;28;20111;-52
2023/08/09 04:10:52;;;;;;;3.38;2.50;;;;;;;13.05;100.00;101341.78;5100376;28;20020;-53
2023/08/09 04:13:18;;;;;;;2.28;2.17;;;;;;;13.03;100.00;101334.91;5100626;28;20039;-55
2023/08/09 04:15:43;;;;;;;2.42;2.22;;;;;;;12.95;100.00;101343.50;5094733;28;20363;-53
2023/08/09 04:18:08;;;;;;;2.85;2.65;;;;;;;12.91;100.00;101347.38;5096040;28;20031;-54
2023/08/09 04:20:34;;;;;;;2.60;2.50;;;;;;;12.86;100.00;101346.91;5099995;28;20049;-52
2023/08/09 04:23:00;;;;;;;2.92;2.72;;;;;;;12.81;100.00;101347.25;5095664;28;20441;-52
2023/08/09 04:25:25;;;;;;;2.88;2.67;;;;;;;12.77;100.00;101353.78;5090534;28;20050;-55
2023/08/09 04:27:53;;;;;;;3.10;2.90;;;;;;;12.72;100.00;101353.28;5097478;28;20489;-53
2023/08/09 04:30:18;;;;;;;3.03;2.70;;;;;;;12.71;100.00;101351.59;5096147;28;20031;-52
2023/08/09 04:32:44;;;;;;;3.35;2.97;;;;;;;12.76;100.00;101352.09;5099714;28;20024;-52
2023/08/09 04:35:10;;;;;;;3.60;3.30;;;;;;;12.72;100.00;101356.81;5094649;28;20028;-54
2023/08/09 04:37:35;;;;;;;3.72;3.42;;;;;;;12.74;100.00;101356.69;5093363;28;20081;-52
2023/08/09 04:40:00;;;;;;;5.85;4.00;;;;;;;12.72;100.00;101351.50;5095034;28;20042;-52
2023/08/09 04:42:27;;;;;;;8.30;3.78;;;;;;;12.70;100.00;101353.41;5095988;28;20461;-52
2023/08/09 04:44:52;;;;;;;4.28;3.88;;;;;;;12.72;100.00;101359.50;5091385;28;20074;-53
2023/08/09 04:47:17;;;;;;;5.00;4.50;;;;;;;12.71;100.00;101364.94;5092733;28;20497;-54
2023/08/09 04:49:43;;;;;;;5.55;4.18;;;;;;;12.70;100.00;101371.22;5099327;28;20036;-53
2023/08/09 04:52:09;;;;;;;4.57;3.83;;;;;;;12.72;100.00;101359.50;5097911;28;20024;-52
2023/08/09 04:54:34;;;;;;;5.30;4.80;;;;;;;12.73;100.00;101363.00;5099792;28;20028;-52
2023/08/09 04:57:00;;;;;;;5.18;4.35;;;;;;;12.75;100.00;101363.72;5100981;28;20027;-53
2023/08/09 04:59:25;;;;;;;5.20;4.80;;;;;;;12.73;100.00;101366.50;5097436;28;20089;-52
2023/08/09 05:01:50;;;;;;;5.53;5.07;;;;;;;12.74;100.00;101368.19;5100238;28;20046;-54
2023/08/09 05:04:16;;;;;;;5.75;5.15;;;;;;;12.77;100.00;101369.75;5092852;28;20085;-55
2023/08/09 05:06:41;;;;;;;8.15;6.43;;;;;;;12.79;100.00;101365.19;5095383;28;20032;-52
2023/08/09 05:09:07;;;;;;;6.93;5.25;;;;;;;12.81;100.00;101371.25;5099527;28;20024;-52
2023/08/09 05:11:33;;;;;;;6.82;6.18;;;;;;;12.84;100.00;101379.00;5092705;28;20020;-52
2023/08/09 05:13:58;;;;;;;6.22;5.68;;;;;;;12.90;100.00;101377.66;5093364;28;20024;-52
2023/08/09 05:16:25;;;;;;;7.25;6.55;;;;;;;12.94;100.00;101379.13;5099890;28;20031;-53
2023/08/09 05:18:51;;;;;;;7.32;6.63;;;;;;;12.99;100.00;101390.28;5095640;28;20527;-54
2023/08/09 05:21:17;;;;;;;7.70;7.00;;;;;;;13.03;100.00;101385.56;5100984;28;20039;-52
2023/08/09 05:23:43;;;;;;;7.20;6.50;;;;;;;13.08;100.00;101386.88;5096193;28;20063;-52
2023/08/09 05:26:08;;;;;;;11.20;7.80;;;;;;;13.14;100.00;101390.91;5101155;28;20051;-52
2023/08/09 05:28:33;;;;;;;9.13;7.40;;;;;;;13.19;100.00;101394.06;5094089;28;20099;-54
2023/08/09 05:30:59;;;;;;;9.02;8.13;;;;;;;13.22;100.00;101398.28;5098769;28;20047;-53
2023/08/09 05:33:24;;;;;;;9.73;8.50;;;;;;;13.27;100.00;101398.78;5095029;28;20043;-54
2023/08/09 05:35:50;;;;;;;9.20;8.27;;;;;;;13.31;100.00;101402.91;5098905;28;20023;-54
2023/08/09 05:38:15;;;;;;;9.73;8.73;;;;;;;13.37;100.00;101402.44;5094557;28;20035;-54
2023/08/09 05:40:40;;;;;;;10.35;9.30;;;;;;;13.45;100.00;101397.34;5094377;28;20102;-53
2023/08/09 05:43:06;;;;;;;10.23;9.23;;;;;;;13.47;100.00;101398.09;5096654;28;20111;-52
2023/08/09 05:45:31;;;;;;;12.00;10.57;;;;;;;13.51;100.00;101396.84;5097134;28;20370;-52
2023/08/09 05:47:56;;;;;;;10.95;9.80;;;;;;;13.59;100.00;101401.59;5096732;28;20032;-55
2023/08/09 05:50:22;;;;;;;11.70;10.38;;;;;;;13.60;100.00;101399.75;5100067;28;20433;-53
2023/08/09 05:52:47;;;;;;;12.85;11.40;;;;;;;13.66;100.00;101405.44;5095600;28;20028;-52
2023/08/09 05:55:12;;;;;;;12.82;11.32;;;;;;;13.72;100.00;101412.09;5099997;28;20034;-53
2023/08/09 05:57:38;;;;;;;15.48;12.68;;;;;;;13.72;100.00;101412.09;5093960;28;20679;-54
2023/08/09 06:00:06;;;;;;;16.95;13.18;;;;;;;13.77;100.00;101406.41;5095358;28;20419;-55
2023/08/09 06:02:33;;;;;;;14.35;12.85;;;;;;;13.81;100.00;101407.84;5091145;28;20610;-55
2023/08/09 06:05:00;;;;;;;16.20;13.77;;;;;;;13.86;100.00;101419.84;5094860;28;20522;-53
2023/08/09 06:07:25;;;;;;;18.15;15.27;;;;;;;13.92;100.00;101417.66;5089392;28;20450;-54
2023/08/09 06:09:50;;;;;;;18.85;14.02;;;;;;;13.92;100.00;101431.84;5093791;28;20107;-54
2023/08/09 06:12:16;;;;;;;17.08;14.55;;;;;;;13.97;100.00;101431.47;5077062;28;20072;-55
2023/08/09 06:14:41;;;;;;;15.85;14.10;;;;;;;13.98;100.00;101427.84;5093106;28;20031;-56
2023/08/09 06:17:06;;;;;;;17.90;15.20;;;;;;;14.01;100.00;101446.28;5087558;28;20035;-56
2023/08/09 06:19:33;;;;;;;21.02;15.50;;;;;;;14.00;100.00;101450.75;5092581;28;20020;-55
2023/08/09 06:21:58;;;;;;;16.42;14.35;;;;;;;13.99;100.00;101448.22;5084664;28;20085;-54
2023/08/09 06:24:24;;;;;;;17.27;14.60;;;;;;;14.00;100.00;101461.44;5094276;28;20095;-55
2023/08/09 06:26:49;;;;;;;19.00;15.43;;;;;;;14.02;100.00;101466.66;5098706;28;20477;-53
2023/08/09 06:29:15;;;;;;;18.10;15.50;;;;;;;14.03;100.00;101468.38;5094419;28;20028;-55
2023/08/09 06:31:41;;;;;;;17.17;15.38;;;;;;;14.06;100.00;101462.78;5096485;28;20434;-54
2023/08/09 06:34:08;;;;;;;18.15;15.48;;;;;;;14.11;100.00;101457.06;5096355;28;20031;-55
2023/08/09 06:36:34;;;;;;;17.20;15.02;;;;;;;14.16;100.00;101463.72;5102949;28;20471;-54
2023/08/09 06:38:59;;;;;;;18.55;15.65;;;;;;;14.22;100.00;101481.06;5103534;28;20110;-54
2023/08/09 06:41:24;;;;;;;18.55;16.55;;;;;;;14.26;100.00;101461.16;5097423;28;20124;-56
2023/08/09 06:43:50;;;;;;;20.35;16.33;;;;;;;14.34;100.00;101466.72;5098907;28;20052;-52
2023/08/09 06:46:15;;;;;;;20.45;16.88;;;;;;;14.33;100.00;101472.19;5103698;28;20058;-55
2023/08/09 06:48:40;;;;;;;20.42;15.90;;;;;;;14.35;100.00;101468.38;5100110;28;20031;-56
2023/08/09 06:51:06;;;;;;;17.38;15.18;;;;;;;14.40;100.00;101473.34;5102170;28;20028;-55
2023/08/09 06:53:31;;;;;;;17.10;15.32;;;;;;;14.46;100.00;101475.53;5104666;28;20484;-56
2023/08/09 06:55:57;;;;;;;19.00;16.35;;;;;;;14.54;100.00;101483.75;5093094;28;20051;-55
2023/08/09 06:58:22;;;;;;;18.25;16.00;;;;;;;14.59;100.00;101486.94;5099962;28;20292;-55
2023/08/09 07:00:48;;;;;;;17.15;15.25;;;;;;;14.66;100.00;101487.25;5094099;28;20029;-52
2023/08/09 07:03:14;;;;;;;17.00;15.25;;;;;;;14.72;100.00;101492.09;5098142;28;20059;-55
2023/08/09 07:05:41;;;;;;;16.83;15.13;;;;;;;14.73;100.00;101495.63;5095121;28;20020;-53
2023/08/09 07:08:06;;;;;;;18.50;16.23;;;;;;;14.78;100.00;101498.75;5097365;28;20027;-52
2023/08/09 07:10:32;;;;;;;18.13;16.23;;;;;;;14.87;100.00;101491.78;5096324;28;20032;-52
2023/08/09 07:12:58;;;;;;;16.85;15.18;;;;;;;14.95;100.00;101491.97;5099793;28;20039;-52
2023/08/09 07:15:24;;;;;;;19.02;16.75;;;;;;;15.02;100.00;101490.50;5097992;28;20100;-52
2023/08/09 07:17:50;;;;;;;18.20;16.05;;;;;;;15.09;100.00;101496.16;5096987;28;20024;-52
2023/08/09 07:20:15;;;;;;;16.23;14.60;;;;;;;15.10;100.00;101501.34;5095971;28;20020;-52
2023/08/09 07:22:42;;;;;;;17.30;15.13;;;;;;;15.21;100.00;101511.16;5086839;28;20043;-51
2023/08/09 07:25:09;;;;;;;18.50;15.95;;;;;;;15.30;100.00;101505.00;5100186;28;20032;-55
2023/08/09 07:27:39;;;;;;;17.15;15.35;;;;;;;15.35;100.00;101500.13;5098063;28;20020;-51
2023/08/09 07:30:05;;;;;;;16.80;14.73;;;;;;;15.46;100.00;101496.50;5097852;28;20055;-51
2023/08/09 07:32:31;;;;;;;18.20;14.30;;;;;;;15.62;100.00;101500.50;5088169;28;20063;-53
2023/08/09 07:34:56;;;;;;;15.70;14.05;;;;;;;15.64;100.00;101510.13;5098277;28;20500;-55
2023/08/09 07:37:21;;;;;;;16.35;14.48;;;;;;;15.70;100.00;101514.06;5097742;28;20871;-53
2023/08/09 07:39:47;;;;;;;16.98;14.38;;;;;;;15.75;100.00;101514.53;5095245;28;20020;-55
2023/08/09 07:42:12;;;;;;;17.13;15.30;;;;;;;15.81;100.00;101521.22;5086991;28;20480;-52
2023/08/09 07:44:37;;;;;;;16.45;14.75;;;;;;;15.84;100.00;101516.44;5090101;28;20036;-54
2023/08/09 07:47:03;;;;;;;15.82;14.15;;;;;;;15.91;100.00;101519.41;5095234;28;20462;-54
2023/08/09 07:49:28;;;;;;;15.38;13.77;;;;;;;15.95;100.00;101520.00;5096594;28;20036;-54
2023/08/09 07:51:54;;;;;;;17.00;15.18;;;;;;;15.98;100.00;101517.88;5095970;28;20026;-52
2023/08/09 07:54:19;;;;;;;17.20;14.38;;;;;;;16.06;100.00;101525.25;5099138;28;20081;-52
2023/08/09 07:56:44;;;;;;;15.07;13.15;;;;;;;16.05;100.00;101529.75;5096428;28;20080;-52
2023/08/09 07:59:10;;;;;;;15.70;14.07;;;;;;;16.09;100.00;101533.00;5094537;28;20035;-52
2023/08/09 08:01:35;;;;;;;16.95;13.98;;;;;;;16.16;100.00;101533.31;5096117;28;20394;-54
2023/08/09 08:04:01;;;;;;;15.90;14.20;;;;;;;16.22;100.00;101535.41;5099956;28;20408;-52
2023/08/09 08:06:27;;;;;;;15.13;13.15;;;;;;;16.25;100.00;101537.84;5092935;28;20015;-53
2023/08/09 08:08:52;;;;;;;14.40;12.90;;;;;;;16.30;100.00;101548.16;5095941;28;20051;-52
2023/08/09 08:11:18;;;;;;;15.55;13.77;;;;;;;16.42;100.00;101539.84;5092987;28;20051;-52
2023/08/09 08:13:43;;;;;;;15.85;13.63;;;;;;;16.52;100.00;101541.69;5097449;28;20027;-51
2023/08/09 08:16:08;;;;;;;17.30;14.63;;;;;;;16.53;100.00;101546.91;5093898;28;20028;-51
2023/08/09 08:18:34;;;;;;;17.23;14.18;;;;;;;16.72;100.00;101547.91;5101118;28;20098;-55
2023/08/09 08:21:00;;;;;;;15.35;13.73;;;;;;;16.86;100.00;101552.06;5096251;28;20065;-54
2023/08/09 08:23:25;;;;;;;17.38;13.98;;;;;;;16.97;100.00;101549.22;5100281;28;20031;-52
2023/08/09 08:25:51;;;;;;;15.43;13.88;;;;;;;17.02;100.00;101547.81;5094909;28;20024;-52
2023/08/09 08:28:16;;;;;;;16.10;13.32;;;;;;;17.08;100.00;101554.44;5096159;28;20434;-52
2023/08/09 08:30:41;;;;;;;14.57;12.65;;;;;;;17.26;100.00;101564.47;5100017;28;20039;-52
2023/08/09 08:33:08;;;;;;;14.20;12.70;;;;;;;17.33;100.00;101558.34;5099081;28;20024;-54
2023/08/09 08:35:36;;;;;;;12.35;11.15;;;;;;;17.59;100.00;101563.09;5093834;28;20064;-53
2023/08/09 08:38:02;;;;;;;13.77;11.40;;;;;;;17.80;100.00;101568.25;5102267;28;20358;-53
2023/08/09 08:40:31;;;;;;;14.50;11.20;;;;;;;17.85;100.00;101566.00;5093784;28;20123;-56
2023/08/09 08:42:57;;;;;;;12.03;10.77;;;;;;;17.98;100.00;101562.13;5094141;28;20020;-53
2023/08/09 08:45:22;;;;;;;11.80;10.60;;;;;;;18.10;100.00;101563.63;5095831;28;20302;-54
2023/08/09 08:47:48;;;;;;;10.93;9.82;;;;;;;18.35;100.00;101570.13;5092460;28;20392;-54
2023/08/09 08:50:15;;;;;;;12.88;10.40;;;;;;;18.51;100.00;101569.47;5098453;28;20028;-55
2023/08/09 08:52:46;;;;;;;13.80;10.00;;;;;;;18.68;99.36;101576.75;5094753;28;20095;-52
2023/08/09 08:55:12;;;;;;;11.77;9.10;;;;;;;18.85;97.62;101579.59;5093595;28;20358;-54
2023/08/09 08:57:40;;;;;;;10.90;9.43;;;;;;;18.78;99.71;101587.41;5093127;28;20024;-54
2023/08/09 09:00:16;;;;;;;10.80;9.60;;;;;;;19.07;97.06;101586.38;5091057;28;20032;-52
2023/08/09 09:02:45;;;;;;;13.35;9.38;;;;;;;19.19;94.47;101586.97;5090656;28;20123;-54
2023/08/09 09:05:12;;;;;;;10.80;8.95;;;;;;;19.36;92.69;101587.94;5095983;28;20413;-53
2023/08/09 09:07:39;;;;;;;11.23;8.75;;;;;;;19.58;94.32;101587.44;5090552;28;20397;-52
2023/08/09 09:10:09;;;;;;;10.80;8.52;;;;;;;19.71;93.67;101595.06;5093308;28;20046;-55
2023/08/09 09:12:38;;;;;;;8.38;7.25;;;;;;;19.69;89.85;101590.84;5088671;28;20531;-52
2023/08/09 09:15:04;;;;;;;;;;;;;;;19.91;96.84;101589.47;5093541;28;20038;-52
2023/08/09 09:17:30;;;;;;;7.88;6.88;;;;;;;20.13;88.90;101594.31;5093295;28;19992;-52
2023/08/09 09:19:55;;;;;;;10.88;7.43;;;;;;;20.15;89.07;101591.44;5096764;28;20070;-52
2023/08/09 09:22:34;;;;;;;12.35;8.85;;;;;;;20.39;92.61;101584.47;5095459;28;20032;-52
2023/08/09 09:24:59;;;;;;;11.45;8.50;;;;;;;20.44;88.12;101590.19;5093965;28;20039;-52
2023/08/09 09:27:33;;;;;;;10.00;8.45;;;;;;;20.62;89.39;101595.47;5092010;28;20474;-52
2023/08/09 09:30:04;;;;;;;10.02;7.75;;;;;;;20.91;86.22;101594.19;5093512;28;20040;-52
2023/08/09 09:32:32;;;;;;;8.77;7.82;;;;;;;21.29;85.37;101605.34;5096365;28;20103;-52
2023/08/09 09:34:57;;;;;;;8.82;7.93;;;;;;;21.62;84.30;101609.72;5094085;28;20063;-52
2023/08/09 09:37:26;;;;;;;13.38;8.80;;;;;;;21.91;82.81;101610.16;5082379;28;20153;-52
2023/08/09 09:39:52;;;;;;;9.82;8.15;;;;;;;22.20;78.62;101614.13;5099562;28;20031;-52
2023/08/09 09:42:28;;;;;;;9.85;7.68;;;;;;;22.38;76.71;101608.50;5084151;28;20024;-52
2023/08/09 09:45:01;;;;;;;8.75;7.75;;;;;;;22.55;77.53;101591.16;5097496;28;20044;-52
2023/08/09 09:47:26;;;;;;;10.65;8.20;;;;;;;22.82;73.62;101597.91;5098725;28;20035;-53
2023/08/09 09:49:52;;;;;;;10.02;8.02;;;;;;;23.14;75.27;101596.00;5093097;28;20016;-53
2023/08/09 09:52:19;;;;;;;8.35;7.32;;;;;;;23.15;71.86;101588.69;5096064;28;20359;-54
2023/08/09 09:54:45;;;;;;;9.90;7.03;;;;;;;23.22;72.41;101587.78;5096922;28;20259;-50
2023/08/09 09:57:11;;;;;;;7.78;6.68;;;;;;;23.29;68.81;101587.91;5098606;28;20253;-51
2023/08/09 09:59:36;;;;;;;8.75;6.10;;;;;;;23.44;71.28;101582.50;5098292;28;20111;-50
2023/08/09 10:02:02;;;;;;;7.07;6.38;;;;;;;23.33;73.93;101594.66;5099248;28;20381;-54
2023/08/09 10:04:28;;;;;;;13.30;5.43;;;;;;;23.68;71.53;101588.69;5099230;28;20016;-50
2023/08/09 10:06:56;;;;;;;8.73;5.47;;;;;;;23.63;69.67;101590.13;5097275;28;20035;-52
2023/08/09 10:09:22;;;;;;;5.80;4.80;;;;;;;23.71;70.03;101581.03;5096833;28;20484;-52
2023/08/09 10:11:50;;;;;;;5.45;4.90;;;;;;;23.99;65.97;101586.66;5100470;28;20025;-53
2023/08/09 10:14:16;;;;;;;6.13;4.70;;;;;;;24.01;69.03;101581.06;5098728;28;20382;-54
2023/08/09 10:16:43;;;;;;;4.93;3.88;;;;;;;24.22;63.96;101579.44;5097134;28;20051;-51
2023/08/09 10:19:14;;;;;;;5.47;4.40;;;;;;;24.17;65.00;101574.59;5095087;28;20028;-54
2023/08/09 10:21:41;;;;;;;4.97;3.75;;;;;;;24.29;64.50;101580.38;5100069;28;20111;-52
2023/08/09 10:24:08;;;;;;;4.40;3.65;;;;;;;24.25;65.58;101573.63;5094532;28;20040;-51
2023/08/09 10:26:37;;;;;;;4.10;3.70;;;;;;;24.42;62.20;101580.53;5101234;28;20485;-51
2023/08/09 10:29:04;;;;;;;;;;;;;;;24.82;69.64;101589.13;5100307;28;20033;-54
2023/08/09 10:31:48;;;;;;;3.47;2.92;;;;;;;24.86;66.27;101595.00;5096380;28;20335;-53
2023/08/09 10:34:34;;;;;;;4.13;2.97;;;;;;;24.90;63.61;101586.28;5098079;28;20492;-52
2023/08/09 10:37:01;;;;;;;4.05;3.00;;;;;;;24.72;60.12;101599.47;5095654;28;20055;-51
2023/08/09 10:39:28;;;;;;;3.42;2.95;;;;;;;24.58;61.25;101603.06;5094334;28;20028;-50
2023/08/09 10:42:08;;;;;;;4.60;3.10;;;;;;;24.71;64.41;101593.22;5101032;28;20055;-50
2023/08/09 10:44:50;;;;;;;4.60;2.83;;;;;;;24.94;65.52;101598.41;5086504;28;20406;-50
2023/08/09 10:47:18;;;;;;;6.95;3.08;;;;;;;25.11;59.19;101600.88;5100265;28;20486;-51
2023/08/09 10:49:55;;;;;;;2.88;2.67;;;;;;;25.16;62.63;101598.41;5099595;28;20066;-51
2023/08/09 10:52:32;;;;;;;3.20;2.60;;;;;;;25.26;58.73;101598.97;5095366;28;20038;-52
2023/08/09 10:55:26;;;;;;;2.70;2.50;;;;;;;25.44;63.54;101600.34;5098370;28;20030;-50
2023/08/09 10:57:54;;;;;;;4.93;2.67;;;;;;;25.40;58.57;101605.34;5092706;28;20493;-52
2023/08/09 11:00:21;;;;;;;6.50;2.90;;;;;;;25.27;57.54;101592.47;5095185;28;20355;-51
2023/08/09 11:02:50;;;;;;;3.67;2.40;;;;;;;25.37;56.54;101602.19;5092515;28;20266;-52
2023/08/09 11:05:19;;;;;;;2.83;2.30;;;;;;;25.35;53.90;101606.94;5097580;28;20043;-51
2023/08/09 11:07:49;;;;;;;4.75;2.28;;;;;;;25.56;55.08;101600.63;5096298;28;20032;-52
2023/08/09 11:10:18;;;;;;;2.08;1.92;;;;;;;25.33;56.62;101590.88;5100541;28;20111;-53
2023/08/09 11:12:44;;;;;;;2.58;1.70;;;;;;;25.10;51.54;101583.75;5104306;28;20508;-52